createdAt,value
2023-03-06T00:00:41.359Z,97296.63
2023-03-06T00:03:20.073Z,97292.72
2023-03-06T00:05:50.226Z,97291.03
2023-03-06T00:08:18.436Z,97297.75
2023-03-06T00:10:47.101Z,97290.97
2023-03-06T00:13:16.784Z,97286.88
2023-03-06T00:15:45.488Z,97284.81
2023-03-06T00:18:13.834Z,97282.09
2023-03-06T00:20:43.583Z,97282.50
2023-03-06T00:23:13.313Z,97272.72
2023-03-06T00:25:44.183Z,97281.66
2023-03-06T00:28:15.023Z,97273.69
2023-03-06T00:30:43.993Z,97284.16
2023-03-06T00:33:12.361Z,97277.91
2023-03-06T00:35:41.215Z,97279.81
2023-03-06T00:38:13.047Z,97281.84
2023-03-06T00:40:41.865Z,97280.84
2023-03-06T00:43:10.080Z,97285.00
2023-03-06T00:45:38.699Z,97274.72
2023-03-06T00:48:07.208Z,97276.69
2023-03-06T00:50:36.322Z,97271.25
2023-03-06T00:53:04.572Z,97261.47
2023-03-06T00:55:34.504Z,97267.72
2023-03-06T00:58:02.839Z,97254.75
2023-03-06T01:00:31.276Z,97262.72
2023-03-06T01:02:59.650Z,97276.03
2023-03-06T01:05:28.304Z,97272.56
2023-03-06T01:07:56.777Z,97274.50
2023-03-06T01:10:25.235Z,97290.59
2023-03-06T01:12:55.102Z,97285.31
2023-03-06T01:15:24.146Z,97293.38
2023-03-06T01:17:54.272Z,97291.28
2023-03-06T01:20:22.968Z,97286.00
2023-03-06T01:22:51.248Z,97286.53
2023-03-06T01:25:19.741Z,97286.47
2023-03-06T01:27:47.932Z,97288.72
2023-03-06T01:30:18.062Z,97280.03
2023-03-06T01:32:46.506Z,97282.75
2023-03-06T01:35:15.398Z,97268.19
2023-03-06T01:37:43.629Z,97265.75
2023-03-06T01:40:14.338Z,97259.69
2023-03-06T01:42:43.218Z,97266.59
2023-03-06T01:45:45.147Z,97265.81
2023-03-06T01:48:14.523Z,97260.59
2023-03-06T01:50:43.240Z,97263.13
2023-03-06T01:53:11.728Z,97255.81
2023-03-06T01:55:40.683Z,97258.00
2023-03-06T01:58:11.193Z,97247.34
2023-03-06T02:00:39.857Z,97251.50
2023-03-06T02:03:11.013Z,97251.75
2023-03-06T02:05:41.752Z,97244.66
2023-03-06T02:08:11.456Z,97252.19
2023-03-06T02:10:41.986Z,97240.91
2023-03-06T02:13:10.229Z,97243.25
2023-03-06T02:15:38.812Z,97242.84
2023-03-06T02:18:07.282Z,97237.97
2023-03-06T02:20:40.966Z,97241.97
2023-03-06T02:23:12.402Z,97250.81
2023-03-06T02:25:44.136Z,97247.72
2023-03-06T02:28:15.133Z,97237.63
2023-03-06T02:30:43.915Z,97234.72
2023-03-06T02:33:13.455Z,97234.97
2023-03-06T02:35:45.353Z,97231.78
2023-03-06T02:38:16.462Z,97235.75
2023-03-06T02:40:49.260Z,97237.69
2023-03-06T02:43:20.570Z,97241.19
2023-03-06T02:45:51.312Z,97234.69
2023-03-06T02:48:20.401Z,97230.50
2023-03-06T02:50:49.413Z,97238.06
2023-03-06T02:53:19.851Z,97241.78
2023-03-06T02:55:50.898Z,97233.91
2023-03-06T02:58:20.643Z,97230.06
2023-03-06T03:00:49.853Z,97238.88
2023-03-06T03:03:18.320Z,97238.88
2023-03-06T03:05:47.157Z,97245.75
2023-03-06T03:08:15.474Z,97238.69
2023-03-06T03:10:44.120Z,97236.06
2023-03-06T03:13:13.732Z,97235.19
2023-03-06T03:15:42.370Z,97233.47
2023-03-06T03:18:11.939Z,97229.19
2023-03-06T03:20:43.187Z,97230.63
2023-03-06T03:23:11.529Z,97224.19
2023-03-06T03:25:40.085Z,97237.69
2023-03-06T03:28:08.262Z,97232.28
2023-03-06T03:30:38.250Z,97217.53
2023-03-06T03:33:06.695Z,97216.84
2023-03-06T03:35:35.392Z,97204.50
2023-03-06T03:38:03.753Z,97209.34
2023-03-06T03:40:32.391Z,97211.81
2023-03-06T03:43:00.674Z,97207.03
2023-03-06T03:45:29.308Z,97211.63
2023-03-06T03:47:58.984Z,97209.72
2023-03-06T03:50:27.894Z,97215.13
2023-03-06T03:52:56.235Z,97210.00
2023-03-06T03:55:24.798Z,97199.25
2023-03-06T03:57:53.120Z,97193.59
2023-03-06T04:00:22.010Z,97192.22
2023-03-06T04:02:50.357Z,97191.56
2023-03-06T04:05:20.305Z,97192.38
2023-03-06T04:07:48.673Z,97193.72
2023-03-06T04:10:17.386Z,97195.53
2023-03-06T04:12:45.838Z,97186.34
2023-03-06T04:15:14.371Z,97186.50
2023-03-06T04:17:42.654Z,97179.97
2023-03-06T04:20:12.464Z,97186.97
2023-03-06T04:22:42.286Z,97186.78
2023-03-06T04:25:11.175Z,97178.53
2023-03-06T04:27:39.467Z,97165.00
2023-03-06T04:30:09.527Z,97162.19
2023-03-06T04:32:37.958Z,97165.00
2023-03-06T04:35:07.647Z,97164.06
2023-03-06T04:37:36.105Z,97166.47
2023-03-06T04:40:07.254Z,97170.28
2023-03-06T04:42:35.613Z,97175.47
2023-03-06T04:45:04.382Z,97172.34
2023-03-06T04:47:32.564Z,97163.69
2023-03-06T04:50:01.551Z,97159.13
2023-03-06T04:52:29.938Z,97161.09
2023-03-06T04:54:58.827Z,97163.59
2023-03-06T04:57:28.482Z,97170.69
2023-03-06T04:59:57.019Z,97166.22
2023-03-06T05:02:25.476Z,97167.31
2023-03-06T05:04:54.018Z,97158.66
2023-03-06T05:07:22.412Z,97152.13
2023-03-06T05:09:51.025Z,97150.41
2023-03-06T05:12:19.219Z,97136.13
2023-03-06T05:14:49.391Z,97144.34
2023-03-06T05:17:17.649Z,97142.47
2023-03-06T05:19:46.261Z,97138.28
2023-03-06T05:22:14.443Z,97149.78
2023-03-06T05:24:42.973Z,97144.31
2023-03-06T05:27:11.223Z,97144.25
2023-03-06T05:29:39.846Z,97143.63
2023-03-06T05:32:10.141Z,97144.41
2023-03-06T05:34:38.737Z,97144.38
2023-03-06T05:37:07.150Z,97143.06
2023-03-06T05:39:35.665Z,97131.69
2023-03-06T05:42:04.123Z,97134.03
2023-03-06T05:44:33.524Z,97129.53
2023-03-06T05:47:01.928Z,97133.44
2023-03-06T05:49:36.898Z,97132.63
2023-03-06T05:52:06.244Z,97131.09
2023-03-06T05:54:36.045Z,97128.78
2023-03-06T05:57:05.359Z,97129.66
2023-03-06T05:59:34.118Z,97130.47
2023-03-06T06:02:04.122Z,97136.22
2023-03-06T06:04:34.035Z,97135.00
2023-03-06T06:07:02.781Z,97128.97
2023-03-06T06:09:31.333Z,97142.41
2023-03-06T06:12:01.910Z,97132.03
2023-03-06T06:14:30.576Z,97134.69
2023-03-06T06:16:58.844Z,97140.94
2023-03-06T06:19:30.012Z,97132.44
2023-03-06T06:22:02.608Z,97136.47
2023-03-06T06:24:31.937Z,97138.53
2023-03-06T06:27:03.667Z,97129.06
2023-03-06T06:29:32.775Z,97127.16
2023-03-06T06:32:02.206Z,97125.91
2023-03-06T06:34:31.932Z,97138.81
2023-03-06T06:37:01.628Z,97140.31
2023-03-06T06:39:30.548Z,97135.09
2023-03-06T06:42:16.061Z,97142.69
2023-03-06T06:44:47.266Z,97138.94
2023-03-06T06:47:23.101Z,97133.31
2023-03-06T06:49:53.362Z,97142.06
2023-03-06T06:52:23.358Z,97144.00
2023-03-06T06:54:52.055Z,97146.66
2023-03-06T06:57:20.473Z,97129.56
2023-03-06T06:59:50.160Z,97131.47
2023-03-06T07:02:20.179Z,97134.81
2023-03-06T07:05:02.415Z,97139.72
2023-03-06T07:07:34.961Z,97141.91
2023-03-06T07:10:05.684Z,97141.38
2023-03-06T07:12:35.289Z,97133.47
2023-03-06T07:15:04.981Z,97144.06
2023-03-06T07:17:33.335Z,97147.56
2023-03-06T07:20:01.985Z,97151.63
2023-03-06T07:22:35.853Z,97147.28
2023-03-06T07:25:12.260Z,97150.16
2023-03-06T07:27:40.480Z,97147.19
2023-03-06T07:30:10.578Z,97147.16
2023-03-06T07:32:38.915Z,97149.88
2023-03-06T07:35:19.741Z,97143.97
2023-03-06T07:37:48.722Z,97152.16
2023-03-06T07:40:19.761Z,97136.06
2023-03-06T07:42:48.310Z,97146.06
2023-03-06T07:45:17.504Z,97150.59
2023-03-06T07:47:46.415Z,97157.16
2023-03-06T07:50:15.189Z,97150.75
2023-03-06T07:52:43.460Z,97157.00
2023-03-06T07:55:13.054Z,97150.31
2023-03-06T07:57:42.885Z,97144.72
2023-03-06T08:00:14.166Z,97151.44
2023-03-06T08:02:43.567Z,97149.44
2023-03-06T08:05:15.396Z,97151.47
2023-03-06T08:07:43.652Z,97151.63
2023-03-06T08:10:14.992Z,97139.53
2023-03-06T08:12:45.120Z,97139.78
2023-03-06T08:15:14.568Z,97147.78
2023-03-06T08:17:42.937Z,97149.88
2023-03-06T08:20:14.468Z,97148.09
2023-03-06T08:22:42.945Z,97131.25
2023-03-06T08:25:13.455Z,97148.97
2023-03-06T08:27:41.768Z,97150.69
2023-03-06T08:30:13.460Z,97149.63
2023-03-06T08:32:41.570Z,97145.44
2023-03-06T08:35:10.452Z,97150.09
2023-03-06T08:37:38.740Z,97144.00
2023-03-06T08:40:08.666Z,97131.97
2023-03-06T08:42:36.892Z,97142.38
2023-03-06T08:45:06.714Z,97140.25
2023-03-06T08:47:38.094Z,97133.13
2023-03-06T08:50:07.154Z,97136.34
2023-03-06T08:52:35.731Z,97132.44
2023-03-06T08:55:05.338Z,97147.41
2023-03-06T08:57:33.761Z,97151.09
2023-03-06T09:00:02.535Z,97143.16
2023-03-06T09:02:31.788Z,97137.56
2023-03-06T09:05:02.271Z,97146.41
2023-03-06T09:07:31.593Z,97141.81
2023-03-06T09:10:00.429Z,97140.75
2023-03-06T09:12:30.709Z,97139.78
2023-03-06T09:14:59.584Z,97147.09
2023-03-06T09:17:28.167Z,97137.63
2023-03-06T09:19:56.955Z,97135.84
2023-03-06T09:22:26.962Z,97142.63
2023-03-06T09:24:55.690Z,97139.50
2023-03-06T09:27:23.901Z,97135.72
2023-03-06T09:29:52.606Z,97127.88
2023-03-06T09:32:20.877Z,97128.63
2023-03-06T09:34:49.822Z,97125.56
2023-03-06T09:37:18.569Z,97139.94
2023-03-06T09:39:48.700Z,97133.59
2023-03-06T09:42:19.094Z,97128.75
2023-03-06T09:44:52.448Z,97118.16
2023-03-06T09:47:36.885Z,97115.06
2023-03-06T09:50:29.670Z,97125.63
2023-03-06T09:53:09.747Z,97120.00
2023-03-06T09:55:40.440Z,97118.22
2023-03-06T09:58:16.040Z,97113.91
2023-03-06T10:00:48.390Z,97124.44
2023-03-06T10:03:23.966Z,97123.41
2023-03-06T10:05:55.197Z,97113.94
2023-03-06T10:08:27.520Z,97119.91
2023-03-06T10:11:02.294Z,97119.28
2023-03-06T10:13:38.232Z,97116.19
2023-03-06T10:16:24.444Z,97114.03
2023-03-06T10:18:53.116Z,97104.22
2023-03-06T10:21:34.215Z,97105.38
2023-03-06T10:24:08.516Z,97103.31
2023-03-06T10:26:41.703Z,97100.84
2023-03-06T10:29:24.024Z,97099.84
2023-03-06T10:31:58.328Z,97095.91
2023-03-06T10:34:30.850Z,97083.84
2023-03-06T10:37:03.086Z,97087.56
2023-03-06T10:39:31.631Z,97094.25
2023-03-06T10:42:01.599Z,97091.91
2023-03-06T10:44:33.030Z,97076.28
2023-03-06T10:47:26.242Z,97078.47
2023-03-06T10:49:59.698Z,97083.38
2023-03-06T10:52:31.632Z,97072.72
2023-03-06T10:55:24.499Z,97065.19
2023-03-06T10:57:55.049Z,97065.25
2023-03-06T11:00:41.098Z,97058.16
2023-03-06T11:03:23.042Z,97060.16
2023-03-06T11:06:00.152Z,97056.88
2023-03-06T11:08:29.825Z,97055.13
2023-03-06T11:11:00.984Z,97059.97
2023-03-06T11:13:31.763Z,97051.59
2023-03-06T11:16:03.285Z,97043.28
2023-03-06T11:18:36.406Z,97045.53
2023-03-06T11:21:09.172Z,97034.50
2023-03-06T11:23:42.370Z,97032.53
2023-03-06T11:26:32.914Z,97035.19
2023-03-06T11:29:14.758Z,97028.34
2023-03-06T11:31:48.644Z,97028.00
2023-03-06T11:34:21.539Z,97035.38
2023-03-06T11:36:53.320Z,97025.91
2023-03-06T11:39:27.937Z,97035.78
2023-03-06T11:42:02.817Z,97029.41
2023-03-06T11:44:43.167Z,97023.38
2023-03-06T11:47:18.055Z,97018.00
2023-03-06T11:49:48.365Z,97016.84
2023-03-06T11:52:22.929Z,97009.78
2023-03-06T11:54:55.587Z,97017.28
2023-03-06T11:57:27.391Z,97015.88
2023-03-06T12:00:15.779Z,97017.00
2023-03-06T12:03:00.642Z,97004.09
2023-03-06T12:05:38.671Z,96992.94
2023-03-06T12:08:18.658Z,96995.97
2023-03-06T12:10:51.809Z,96993.13
2023-03-06T12:13:43.985Z,96983.88
2023-03-06T12:16:55.722Z,96981.38
2023-03-06T12:19:37.903Z,96974.69
2023-03-06T12:22:20.348Z,96971.63
2023-03-06T12:25:00.776Z,96964.50
2023-03-06T12:27:34.964Z,96958.06
2023-03-06T12:30:25.158Z,96964.84
2023-03-06T12:33:04.058Z,96962.75
2023-03-06T12:35:52.540Z,96958.94
2023-03-06T12:38:42.651Z,96951.03
2023-03-06T12:41:21.338Z,96944.38
2023-03-06T12:43:59.867Z,96941.56
2023-03-06T12:46:30.578Z,96941.28
2023-03-06T12:49:04.884Z,96942.22
2023-03-06T12:51:33.770Z,96944.59
2023-03-06T12:54:03.744Z,96938.47
2023-03-06T12:56:32.698Z,96927.75
2023-03-06T12:59:02.795Z,96935.28
2023-03-06T13:01:58.528Z,96933.06
2023-03-06T13:04:42.124Z,96917.56
2023-03-06T13:07:26.398Z,96930.75
2023-03-06T13:10:04.083Z,96916.19
2023-03-06T13:13:01.154Z,96928.97
2023-03-06T13:15:41.485Z,96933.00
2023-03-06T13:18:56.035Z,96923.50
2023-03-06T13:22:10.360Z,96913.69
2023-03-06T13:24:40.100Z,96918.97
2023-03-06T13:27:11.227Z,96909.16
2023-03-06T13:30:07.489Z,96918.50
2023-03-06T13:32:37.436Z,96910.06
2023-03-06T13:35:47.485Z,96902.03
2023-03-06T13:38:34.088Z,96913.50
2023-03-06T13:41:43.162Z,96903.25
2023-03-06T13:44:46.082Z,96901.94
2023-03-06T13:48:02.472Z,96908.03
2023-03-06T13:50:38.154Z,96901.16
2023-03-06T13:53:42.692Z,96893.88
2023-03-06T13:56:35.410Z,96899.00
2023-03-06T13:59:24.342Z,96896.13
2023-03-06T14:02:00.060Z,96905.81
2023-03-06T14:04:38.269Z,96891.28
2023-03-06T14:07:26.783Z,96895.19
2023-03-06T14:10:12.667Z,96895.59
2023-03-06T14:12:43.598Z,96897.72
2023-03-06T14:15:20.419Z,96900.97
2023-03-06T14:17:55.630Z,96898.00
2023-03-06T14:20:28.956Z,96897.34
2023-03-06T14:23:16.574Z,96897.63
2023-03-06T14:25:46.565Z,96894.16
2023-03-06T14:28:25.820Z,96908.13
2023-03-06T14:30:56.671Z,96898.63
2023-03-06T14:33:32.630Z,96890.91
2023-03-06T14:36:03.528Z,96932.31
2023-03-06T14:38:36.906Z,96924.63
2023-03-06T14:41:07.123Z,96940.28
2023-03-06T14:43:35.641Z,96945.91
2023-03-06T14:46:07.011Z,96937.63
2023-03-06T14:48:41.938Z,96939.03
2023-03-06T14:51:17.669Z,96941.63
2023-03-06T14:53:48.302Z,96938.78
2023-03-06T14:56:19.752Z,96938.75
2023-03-06T14:58:56.998Z,96944.94
2023-03-06T15:01:32.568Z,96946.00
2023-03-06T15:04:02.145Z,96945.38
2023-03-06T15:06:34.591Z,96942.47
2023-03-06T15:09:07.940Z,96942.19
2023-03-06T15:11:53.758Z,96934.00
2023-03-06T15:14:24.456Z,96936.28
2023-03-06T15:16:54.067Z,96939.78
2023-03-06T15:19:23.506Z,96939.56
2023-03-06T15:21:52.575Z,96945.53
2023-03-06T15:24:33.876Z,96943.56
2023-03-06T15:27:03.706Z,96936.78
2023-03-06T15:29:32.802Z,96944.19
2023-03-06T15:32:31.297Z,96938.50
2023-03-06T15:35:28.677Z,96937.09
2023-03-06T15:37:57.318Z,96930.44
2023-03-06T15:40:28.447Z,96941.41
2023-03-06T15:42:57.119Z,96938.22
2023-03-06T15:45:26.817Z,96935.19
2023-03-06T15:47:56.831Z,96935.28
2023-03-06T15:50:27.022Z,96938.06
2023-03-06T15:52:57.477Z,96927.88
2023-03-06T15:55:26.963Z,96932.69
2023-03-06T15:57:57.704Z,96929.00
2023-03-06T16:00:28.788Z,96927.19
2023-03-06T16:02:58.969Z,96926.00
2023-03-06T16:05:28.419Z,96941.13
2023-03-06T16:07:57.304Z,96930.53
2023-03-06T16:10:27.397Z,96929.50
2023-03-06T16:12:57.673Z,96937.22
2023-03-06T16:15:29.178Z,96930.44
2023-03-06T16:17:59.864Z,96932.44
2023-03-06T16:20:30.088Z,96936.09
2023-03-06T16:22:58.570Z,96938.00
2023-03-06T16:25:28.674Z,96940.78
2023-03-06T16:27:59.095Z,96933.31
2023-03-06T16:30:29.968Z,96934.75
2023-03-06T16:32:59.954Z,96927.66
2023-03-06T16:35:29.015Z,96925.59
2023-03-06T16:37:57.270Z,96935.25
2023-03-06T16:40:27.621Z,96928.75
2023-03-06T16:42:56.751Z,96928.25
2023-03-06T16:45:25.913Z,96924.25
2023-03-06T16:47:54.541Z,96913.56
2023-03-06T16:50:26.787Z,96917.09
2023-03-06T16:52:56.351Z,96919.75
2023-03-06T16:55:26.597Z,96912.94
2023-03-06T16:57:55.689Z,96915.81
2023-03-06T17:00:25.000Z,96911.72
2023-03-06T17:02:53.784Z,96921.22
2023-03-06T17:05:22.551Z,96925.59
2023-03-06T17:07:52.174Z,96938.59
2023-03-06T17:10:22.751Z,96940.34
2023-03-06T17:12:51.223Z,96950.81
2023-03-06T17:15:19.846Z,96951.69
2023-03-06T17:17:48.714Z,96945.59
2023-03-06T17:20:17.703Z,96944.50
2023-03-06T17:22:46.121Z,96951.09
2023-03-06T17:25:16.672Z,96944.22
2023-03-06T17:27:44.989Z,96945.16
2023-03-06T17:30:14.100Z,96935.88
2023-03-06T17:32:42.531Z,96942.50
2023-03-06T17:35:11.085Z,96942.53
2023-03-06T17:37:39.401Z,96940.88
2023-03-06T17:40:10.119Z,96937.88
2023-03-06T17:42:39.692Z,96934.53
2023-03-06T17:45:11.255Z,96943.47
2023-03-06T17:47:39.497Z,96953.34
2023-03-06T17:50:08.907Z,96947.78
2023-03-06T17:52:37.537Z,96944.59
2023-03-06T17:55:07.145Z,96955.34
2023-03-06T17:57:35.493Z,96952.16
2023-03-06T18:00:06.974Z,96954.78
2023-03-06T18:02:35.170Z,96947.06
2023-03-06T18:05:04.073Z,96964.66
2023-03-06T18:07:32.548Z,96947.91
2023-03-06T18:10:01.102Z,96956.06
2023-03-06T18:12:29.556Z,96960.94
2023-03-06T18:14:57.991Z,96959.31
2023-03-06T18:17:27.604Z,96963.88
2023-03-06T18:19:57.163Z,96959.84
2023-03-06T18:22:25.407Z,96952.28
2023-03-06T18:24:54.032Z,96957.97
2023-03-06T18:27:22.304Z,96965.81
2023-03-06T18:29:52.254Z,96962.03
2023-03-06T18:32:20.577Z,96958.25
2023-03-06T18:34:51.856Z,96963.31
2023-03-06T18:37:20.093Z,96964.78
2023-03-06T18:39:49.079Z,96963.69
2023-03-06T18:42:17.294Z,96960.47
2023-03-06T18:44:47.912Z,96965.63
2023-03-06T18:47:16.452Z,96969.41
2023-03-06T18:49:46.400Z,96966.41
2023-03-06T18:52:15.991Z,96967.38
2023-03-06T18:54:44.594Z,96958.75
2023-03-06T18:57:12.818Z,96956.06
2023-03-06T18:59:41.293Z,96957.94
2023-03-06T19:02:11.283Z,96957.66
2023-03-06T19:04:39.863Z,96953.88
2023-03-06T19:07:08.186Z,96946.56
2023-03-06T19:09:38.145Z,96951.88
2023-03-06T19:12:07.365Z,96955.50
2023-03-06T19:14:36.446Z,96952.25
2023-03-06T19:17:04.725Z,96948.72
2023-03-06T19:19:33.504Z,96953.88
2023-03-06T19:22:02.088Z,96948.47
2023-03-06T19:24:30.657Z,96953.59
2023-03-06T19:27:00.292Z,96946.97
2023-03-06T19:29:28.903Z,96940.31
2023-03-06T19:31:58.945Z,96937.91
2023-03-06T19:34:27.632Z,96940.31
2023-03-06T19:36:55.967Z,96935.19
2023-03-06T19:39:24.465Z,96928.69
2023-03-06T19:41:53.087Z,96943.28
2023-03-06T19:44:23.341Z,96934.00
2023-03-06T19:46:51.594Z,96934.41
2023-03-06T19:49:22.354Z,96926.34
2023-03-06T19:51:50.563Z,96925.72
2023-03-06T19:54:23.458Z,96928.16
2023-03-06T19:56:51.966Z,96927.34
2023-03-06T19:59:22.026Z,96928.94
2023-03-06T20:01:50.546Z,96927.91
2023-03-06T20:04:19.220Z,96933.28
2023-03-06T20:06:48.438Z,96926.28
2023-03-06T20:09:17.320Z,96931.16
2023-03-06T20:11:46.027Z,96930.03
2023-03-06T20:14:14.669Z,96935.53
2023-03-06T20:16:44.337Z,96934.69
2023-03-06T20:19:13.227Z,96932.00
2023-03-06T20:21:41.508Z,96926.66
2023-03-06T20:24:16.689Z,96936.63
2023-03-06T20:26:45.405Z,96929.31
2023-03-06T20:29:14.155Z,96937.16
2023-03-06T20:31:42.625Z,96935.53
2023-03-06T20:34:12.718Z,96940.13
2023-03-06T20:36:41.536Z,96930.69
2023-03-06T20:39:12.231Z,96936.03
2023-03-06T20:41:41.199Z,96941.47
2023-03-06T20:44:13.456Z,96932.19
2023-03-06T20:46:42.005Z,96932.84
2023-03-06T20:49:13.744Z,96934.06
2023-03-06T20:51:42.523Z,96934.91
2023-03-06T20:54:12.907Z,96936.81
2023-03-06T20:56:41.921Z,96937.13
2023-03-06T20:59:12.486Z,96933.31
2023-03-06T21:01:42.511Z,96945.50
2023-03-06T21:04:14.050Z,96936.59
2023-03-06T21:06:45.409Z,96932.81
2023-03-06T21:09:14.591Z,96932.56
2023-03-06T21:11:43.170Z,96937.44
2023-03-06T21:14:13.297Z,96931.50
2023-03-06T21:16:41.587Z,96930.16
2023-03-06T21:19:11.233Z,96931.72
2023-03-06T21:21:41.113Z,96928.97
2023-03-06T21:24:09.668Z,96925.78
2023-03-06T21:26:38.004Z,96937.97
2023-03-06T21:29:06.837Z,96934.72
2023-03-06T21:31:35.188Z,96929.34
2023-03-06T21:34:05.552Z,96926.25
2023-03-06T21:36:34.297Z,96920.84
2023-03-06T21:39:06.562Z,96929.66
2023-03-06T21:41:34.922Z,96928.22
2023-03-06T21:44:05.226Z,96926.28
2023-03-06T21:46:33.888Z,96928.81
2023-03-06T21:49:04.040Z,96933.41
2023-03-06T21:51:33.006Z,96929.34
2023-03-06T21:54:02.168Z,96936.69
2023-03-06T21:56:33.558Z,96934.72
2023-03-06T21:59:02.688Z,96932.34
2023-03-06T22:01:31.442Z,96930.16
2023-03-06T22:04:00.206Z,96933.19
2023-03-06T22:06:31.341Z,96931.19
2023-03-06T22:09:00.475Z,96924.47
2023-03-06T22:11:31.402Z,96921.72
2023-03-06T22:14:01.529Z,96927.97
2023-03-06T22:16:30.153Z,96921.50
2023-03-06T22:18:59.328Z,96919.06
2023-03-06T22:21:27.896Z,96923.72
2023-03-06T22:23:58.640Z,96917.47
2023-03-06T22:26:27.674Z,96920.47
2023-03-06T22:28:56.180Z,96921.81
2023-03-06T22:31:27.390Z,96914.44
2023-03-06T22:33:57.406Z,96910.69
2023-03-06T22:36:26.006Z,96917.50
2023-03-06T22:38:56.730Z,96913.94
2023-03-06T22:41:25.845Z,96911.28
2023-03-06T22:43:56.686Z,96914.72
2023-03-06T22:46:27.259Z,96914.44
2023-03-06T22:48:57.058Z,96917.41
2023-03-06T22:51:25.533Z,96912.88
2023-03-06T22:53:54.150Z,96909.63
2023-03-06T22:56:23.291Z,96912.56
2023-03-06T22:58:52.080Z,96919.66
2023-03-06T23:01:22.613Z,96910.38
2023-03-06T23:03:54.252Z,96920.09
2023-03-06T23:06:24.796Z,96908.22
2023-03-06T23:08:55.000Z,96903.34
2023-03-06T23:11:24.233Z,96907.94
2023-03-06T23:13:53.027Z,96910.41
2023-03-06T23:16:21.678Z,96913.66
2023-03-06T23:18:50.169Z,96904.50
2023-03-06T23:21:20.827Z,96902.16
2023-03-06T23:23:50.392Z,96900.91
2023-03-06T23:26:20.353Z,96905.44
2023-03-06T23:28:48.841Z,96906.84
2023-03-06T23:31:18.506Z,96908.97
2023-03-06T23:33:47.213Z,96904.66
2023-03-06T23:36:17.141Z,96910.88
2023-03-06T23:38:47.682Z,96907.28
2023-03-06T23:41:18.411Z,96908.88
2023-03-06T23:43:47.166Z,96907.88
2023-03-06T23:46:16.132Z,96906.75
2023-03-06T23:48:45.340Z,96906.47
2023-03-06T23:51:15.870Z,96912.59
2023-03-06T23:53:44.615Z,96912.72
2023-03-06T23:56:14.739Z,96911.47
2023-03-06T23:58:43.254Z,96913.78
